sensor_id;sensor_type;location;lat;lon;timestamp;temperature;humidity
24326;DHT22;12448;45.532;5.290;2022-12-18T00:00:30;0.40;96.70
24326;DHT22;12448;45.532;5.290;2022-12-18T00:02:55;0.40;96.70
24326;DHT22;12448;45.532;5.290;2022-12-18T00:05:21;0.40;96.60
24326;DHT22;12448;45.532;5.290;2022-12-18T00:07:47;0.40;96.60
24326;DHT22;12448;45.532;5.290;2022-12-18T00:10:12;0.50;96.60
24326;DHT22;12448;45.532;5.290;2022-12-18T00:12:38;0.50;96.50
24326;DHT22;12448;45.532;5.290;2022-12-18T00:15:04;0.50;96.60
24326;DHT22;12448;45.532;5.290;2022-12-18T00:17:30;0.60;96.60
24326;DHT22;12448;45.532;5.290;2022-12-18T00:19:55;0.60;96.50
24326;DHT22;12448;45.532;5.290;2022-12-18T00:22:24;0.60;96.50
24326;DHT22;12448;45.532;5.290;2022-12-18T00:24:49;0.60;96.40
24326;DHT22;12448;45.532;5.290;2022-12-18T00:27:15;0.70;96.40
24326;DHT22;12448;45.532;5.290;2022-12-18T00:29:41;0.70;96.20
24326;DHT22;12448;45.532;5.290;2022-12-18T00:32:06;0.70;96.30
24326;DHT22;12448;45.532;5.290;2022-12-18T00:34:32;0.80;96.30
24326;DHT22;12448;45.532;5.290;2022-12-18T00:36:58;0.80;96.20
24326;DHT22;12448;45.532;5.290;2022-12-18T00:39:23;0.80;96.20
24326;DHT22;12448;45.532;5.290;2022-12-18T00:41:49;0.80;96.10
24326;DHT22;12448;45.532;5.290;2022-12-18T00:44:33;0.80;96.30
24326;DHT22;12448;45.532;5.290;2022-12-18T00:46:59;0.70;95.80
24326;DHT22;12448;45.532;5.290;2022-12-18T00:49:25;0.70;95.80
24326;DHT22;12448;45.532;5.290;2022-12-18T00:51:50;0.70;95.70
24326;DHT22;12448;45.532;5.290;2022-12-18T00:54:16;0.70;95.60
24326;DHT22;12448;45.532;5.290;2022-12-18T00:56:42;0.70;95.50
24326;DHT22;12448;45.532;5.290;2022-12-18T00:59:08;0.70;95.50
24326;DHT22;12448;45.532;5.290;2022-12-18T01:01:34;0.70;95.50
24326;DHT22;12448;45.532;5.290;2022-12-18T01:04:01;0.70;95.60
24326;DHT22;12448;45.532;5.290;2022-12-18T01:06:27;0.70;95.60
24326;DHT22;12448;45.532;5.290;2022-12-18T01:08:53;0.80;95.70
24326;DHT22;12448;45.532;5.290;2022-12-18T01:11:20;0.70;95.60
24326;DHT22;12448;45.532;5.290;2022-12-18T01:13:46;0.70;95.60
24326;DHT22;12448;45.532;5.290;2022-12-18T01:16:14;0.80;95.60
24326;DHT22;12448;45.532;5.290;2022-12-18T01:18:39;0.80;95.60
24326;DHT22;12448;45.532;5.290;2022-12-18T01:21:10;0.70;95.50
24326;DHT22;12448;45.532;5.290;2022-12-18T01:23:37;0.80;95.50
24326;DHT22;12448;45.532;5.290;2022-12-18T01:26:10;0.70;95.40
24326;DHT22;12448;45.532;5.290;2022-12-18T01:28:36;0.70;95.50
24326;DHT22;12448;45.532;5.290;2022-12-18T01:31:21;0.80;95.60
24326;DHT22;12448;45.532;5.290;2022-12-18T01:33:47;0.70;95.60
24326;DHT22;12448;45.532;5.290;2022-12-18T01:38:46;0.70;95.50
24326;DHT22;12448;45.532;5.290;2022-12-18T01:41:13;0.70;95.50
24326;DHT22;12448;45.532;5.290;2022-12-18T01:46:07;0.70;95.50
24326;DHT22;12448;45.532;5.290;2022-12-18T01:48:36;0.70;95.50
24326;DHT22;12448;45.532;5.290;2022-12-18T01:51:08;0.70;95.50
24326;DHT22;12448;45.532;5.290;2022-12-18T01:53:36;0.70;95.50
24326;DHT22;12448;45.532;5.290;2022-12-18T01:56:02;0.70;95.40
24326;DHT22;12448;45.532;5.290;2022-12-18T01:58:53;0.70;95.50
24326;DHT22;12448;45.532;5.290;2022-12-18T02:01:21;0.60;95.40
24326;DHT22;12448;45.532;5.290;2022-12-18T02:03:47;0.70;95.40
24326;DHT22;12448;45.532;5.290;2022-12-18T02:19:08;0.70;95.20
24326;DHT22;12448;45.532;5.290;2022-12-18T02:27:05;0.70;95.20
24326;DHT22;12448;45.532;5.290;2022-12-18T02:29:44;0.60;95.20
24326;DHT22;12448;45.532;5.290;2022-12-18T02:32:15;0.60;95.20
24326;DHT22;12448;45.532;5.290;2022-12-18T02:34:43;0.60;95.30
24326;DHT22;12448;45.532;5.290;2022-12-18T02:37:13;0.60;95.20
24326;DHT22;12448;45.532;5.290;2022-12-18T02:39:42;0.60;95.20
24326;DHT22;12448;45.532;5.290;2022-12-18T02:42:09;0.60;95.20
24326;DHT22;12448;45.532;5.290;2022-12-18T02:44:49;0.60;95.10
24326;DHT22;12448;45.532;5.290;2022-12-18T02:47:19;0.60;95.00
24326;DHT22;12448;45.532;5.290;2022-12-18T02:55:23;0.60;95.20
24326;DHT22;12448;45.532;5.290;2022-12-18T03:03:18;0.80;95.40
24326;DHT22;12448;45.532;5.290;2022-12-18T03:05:48;0.80;95.40
24326;DHT22;12448;45.532;5.290;2022-12-18T03:08:20;0.80;95.40
24326;DHT22;12448;45.532;5.290;2022-12-18T03:11:03;0.80;95.40
24326;DHT22;12448;45.532;5.290;2022-12-18T03:13:36;0.80;95.40
24326;DHT22;12448;45.532;5.290;2022-12-18T03:16:06;0.80;95.40
24326;DHT22;12448;45.532;5.290;2022-12-18T03:18:42;0.80;95.40
24326;DHT22;12448;45.532;5.290;2022-12-18T03:21:12;0.90;95.50
24326;DHT22;12448;45.532;5.290;2022-12-18T03:23:46;0.90;95.60
24326;DHT22;12448;45.532;5.290;2022-12-18T03:26:15;0.90;95.60
24326;DHT22;12448;45.532;5.290;2022-12-18T03:28:57;1.00;95.80
24326;DHT22;12448;45.532;5.290;2022-12-18T03:31:26;1.10;95.80
24326;DHT22;12448;45.532;5.290;2022-12-18T03:33:58;1.00;95.80
24326;DHT22;12448;45.532;5.290;2022-12-18T03:36:25;1.00;95.80
24326;DHT22;12448;45.532;5.290;2022-12-18T03:38:52;1.00;95.80
24326;DHT22;12448;45.532;5.290;2022-12-18T03:41:31;1.00;95.80
24326;DHT22;12448;45.532;5.290;2022-12-18T03:44:11;0.90;95.70
24326;DHT22;12448;45.532;5.290;2022-12-18T03:51:59;0.80;95.50
24326;DHT22;12448;45.532;5.290;2022-12-18T03:54:27;0.80;95.60
24326;DHT22;12448;45.532;5.290;2022-12-18T03:56:59;0.80;95.50
24326;DHT22;12448;45.532;5.290;2022-12-18T03:59:27;0.80;95.50
24326;DHT22;12448;45.532;5.290;2022-12-18T04:01:55;0.80;95.50
24326;DHT22;12448;45.532;5.290;2022-12-18T04:04:24;0.80;95.50
24326;DHT22;12448;45.532;5.290;2022-12-18T04:06:52;0.80;95.60
24326;DHT22;12448;45.532;5.290;2022-12-18T04:09:19;0.80;95.60
24326;DHT22;12448;45.532;5.290;2022-12-18T04:11:46;0.80;95.60
24326;DHT22;12448;45.532;5.290;2022-12-18T04:14:12;0.80;95.60
24326;DHT22;12448;45.532;5.290;2022-12-18T04:16:38;0.90;95.70
24326;DHT22;12448;45.532;5.290;2022-12-18T04:19:04;0.90;95.70
24326;DHT22;12448;45.532;5.290;2022-12-18T04:21:30;0.90;95.80
24326;DHT22;12448;45.532;5.290;2022-12-18T04:23:55;1.00;95.80
24326;DHT22;12448;45.532;5.290;2022-12-18T04:26:21;1.00;95.90
24326;DHT22;12448;45.532;5.290;2022-12-18T04:28:47;1.00;95.90
24326;DHT22;12448;45.532;5.290;2022-12-18T04:31:12;1.00;96.00
24326;DHT22;12448;45.532;5.290;2022-12-18T04:33:38;1.00;96.10
24326;DHT22;12448;45.532;5.290;2022-12-18T04:36:04;1.10;96.10
24326;DHT22;12448;45.532;5.290;2022-12-18T04:38:30;1.10;96.20
24326;DHT22;12448;45.532;5.290;2022-12-18T04:40:55;1.10;96.20
24326;DHT22;12448;45.532;5.290;2022-12-18T04:43:21;1.20;96.20
24326;DHT22;12448;45.532;5.290;2022-12-18T04:45:47;1.20;96.30
24326;DHT22;12448;45.532;5.290;2022-12-18T04:48:13;1.20;96.30
24326;DHT22;12448;45.532;5.290;2022-12-18T04:50:38;1.70;96.50
24326;DHT22;12448;45.532;5.290;2022-12-18T04:53:04;1.20;96.40
24326;DHT22;12448;45.532;5.290;2022-12-18T04:55:30;1.20;96.40
24326;DHT22;12448;45.532;5.290;2022-12-18T04:57:55;1.20;96.40
24326;DHT22;12448;45.532;5.290;2022-12-18T05:00:22;1.20;96.50
24326;DHT22;12448;45.532;5.290;2022-12-18T05:02:47;1.20;96.50
24326;DHT22;12448;45.532;5.290;2022-12-18T05:05:14;1.20;96.50
24326;DHT22;12448;45.532;5.290;2022-12-18T05:07:39;1.20;96.50
24326;DHT22;12448;45.532;5.290;2022-12-18T05:10:05;1.30;96.60
24326;DHT22;12448;45.532;5.290;2022-12-18T05:12:32;1.20;96.50
24326;DHT22;12448;45.532;5.290;2022-12-18T05:14:57;1.30;96.60
24326;DHT22;12448;45.532;5.290;2022-12-18T05:17:23;1.30;96.60
24326;DHT22;12448;45.532;5.290;2022-12-18T05:19:49;1.50;96.70
24326;DHT22;12448;45.532;5.290;2022-12-18T05:22:15;1.30;96.70
24326;DHT22;12448;45.532;5.290;2022-12-18T05:24:41;1.50;96.70
24326;DHT22;12448;45.532;5.290;2022-12-18T05:27:06;1.30;96.70
24326;DHT22;12448;45.532;5.290;2022-12-18T05:29:32;1.30;96.70
24326;DHT22;12448;45.532;5.290;2022-12-18T05:31:59;1.30;96.80
24326;DHT22;12448;45.532;5.290;2022-12-18T05:34:25;1.40;96.80
24326;DHT22;12448;45.532;5.290;2022-12-18T05:36:51;1.40;96.80
24326;DHT22;12448;45.532;5.290;2022-12-18T05:39:16;1.30;96.80
24326;DHT22;12448;45.532;5.290;2022-12-18T05:41:42;1.40;96.90
24326;DHT22;12448;45.532;5.290;2022-12-18T05:44:08;2.00;97.00
24326;DHT22;12448;45.532;5.290;2022-12-18T05:46:33;1.40;96.90
24326;DHT22;12448;45.532;5.290;2022-12-18T05:49:00;1.40;96.90
24326;DHT22;12448;45.532;5.290;2022-12-18T05:51:27;1.40;96.90
24326;DHT22;12448;45.532;5.290;2022-12-18T05:53:52;1.40;96.90
24326;DHT22;12448;45.532;5.290;2022-12-18T05:56:20;1.40;96.90
24326;DHT22;12448;45.532;5.290;2022-12-18T05:58:46;1.40;96.90
24326;DHT22;12448;45.532;5.290;2022-12-18T06:01:15;1.40;96.90
24326;DHT22;12448;45.532;5.290;2022-12-18T06:03:41;1.50;97.00
24326;DHT22;12448;45.532;5.290;2022-12-18T06:06:21;1.80;97.10
24326;DHT22;12448;45.532;5.290;2022-12-18T06:08:48;1.40;96.90
24326;DHT22;12448;45.532;5.290;2022-12-18T06:11:18;1.40;96.90
24326;DHT22;12448;45.532;5.290;2022-12-18T06:13:43;1.40;96.90
24326;DHT22;12448;45.532;5.290;2022-12-18T06:16:09;1.40;96.90
24326;DHT22;12448;45.532;5.290;2022-12-18T06:18:35;1.40;96.90
24326;DHT22;12448;45.532;5.290;2022-12-18T06:21:01;1.40;96.90
24326;DHT22;12448;45.532;5.290;2022-12-18T06:23:27;1.40;97.00
24326;DHT22;12448;45.532;5.290;2022-12-18T06:25:53;1.40;97.00
24326;DHT22;12448;45.532;5.290;2022-12-18T06:28:19;1.40;97.10
24326;DHT22;12448;45.532;5.290;2022-12-18T06:30:46;1.40;97.10
24326;DHT22;12448;45.532;5.290;2022-12-18T06:33:12;1.40;97.10
24326;DHT22;12448;45.532;5.290;2022-12-18T06:35:37;1.40;97.20
24326;DHT22;12448;45.532;5.290;2022-12-18T06:38:03;1.40;97.20
24326;DHT22;12448;45.532;5.290;2022-12-18T06:40:29;1.40;97.20
24326;DHT22;12448;45.532;5.290;2022-12-18T06:42:55;1.40;97.20
24326;DHT22;12448;45.532;5.290;2022-12-18T06:45:20;1.40;97.30
24326;DHT22;12448;45.532;5.290;2022-12-18T06:47:46;1.50;97.30
24326;DHT22;12448;45.532;5.290;2022-12-18T06:50:12;1.50;97.40
24326;DHT22;12448;45.532;5.290;2022-12-18T06:52:38;1.50;97.40
24326;DHT22;12448;45.532;5.290;2022-12-18T06:55:06;1.50;97.40
24326;DHT22;12448;45.532;5.290;2022-12-18T06:57:33;1.60;97.50
24326;DHT22;12448;45.532;5.290;2022-12-18T06:59:59;1.60;97.40
24326;DHT22;12448;45.532;5.290;2022-12-18T07:02:25;1.60;97.40
24326;DHT22;12448;45.532;5.290;2022-12-18T07:04:50;1.50;97.40
24326;DHT22;12448;45.532;5.290;2022-12-18T07:07:16;1.60;97.50
24326;DHT22;12448;45.532;5.290;2022-12-18T07:09:42;1.60;97.60
24326;DHT22;12448;45.532;5.290;2022-12-18T07:12:07;1.70;97.60
24326;DHT22;12448;45.532;5.290;2022-12-18T07:14:33;1.60;97.60
24326;DHT22;12448;45.532;5.290;2022-12-18T07:16:59;1.60;97.60
24326;DHT22;12448;45.532;5.290;2022-12-18T07:19:25;1.60;97.50
24326;DHT22;12448;45.532;5.290;2022-12-18T07:21:51;1.60;97.50
24326;DHT22;12448;45.532;5.290;2022-12-18T07:24:16;1.60;97.50
24326;DHT22;12448;45.532;5.290;2022-12-18T07:26:42;1.60;97.50
24326;DHT22;12448;45.532;5.290;2022-12-18T07:29:08;1.60;97.50
24326;DHT22;12448;45.532;5.290;2022-12-18T07:31:33;1.60;97.50
24326;DHT22;12448;45.532;5.290;2022-12-18T07:33:59;1.60;97.50
24326;DHT22;12448;45.532;5.290;2022-12-18T07:36:24;1.60;97.50
24326;DHT22;12448;45.532;5.290;2022-12-18T07:38:50;1.60;97.50
24326;DHT22;12448;45.532;5.290;2022-12-18T07:41:18;1.80;97.60
24326;DHT22;12448;45.532;5.290;2022-12-18T07:43:44;1.60;97.60
24326;DHT22;12448;45.532;5.290;2022-12-18T07:46:11;1.60;97.60
24326;DHT22;12448;45.532;5.290;2022-12-18T07:48:39;1.60;97.70
24326;DHT22;12448;45.532;5.290;2022-12-18T07:51:06;1.60;97.70
24326;DHT22;12448;45.532;5.290;2022-12-18T07:53:33;1.60;97.70
24326;DHT22;12448;45.532;5.290;2022-12-18T07:56:01;1.70;97.80
24326;DHT22;12448;45.532;5.290;2022-12-18T07:58:28;1.70;97.80
24326;DHT22;12448;45.532;5.290;2022-12-18T08:00:53;1.70;97.80
24326;DHT22;12448;45.532;5.290;2022-12-18T08:03:19;1.70;97.70
24326;DHT22;12448;45.532;5.290;2022-12-18T08:05:45;1.70;97.80
24326;DHT22;12448;45.532;5.290;2022-12-18T08:08:10;1.70;97.80
24326;DHT22;12448;45.532;5.290;2022-12-18T08:10:37;1.70;97.80
24326;DHT22;12448;45.532;5.290;2022-12-18T08:13:03;1.80;97.80
24326;DHT22;12448;45.532;5.290;2022-12-18T08:15:28;1.80;97.80
24326;DHT22;12448;45.532;5.290;2022-12-18T08:17:56;1.80;97.80
24326;DHT22;12448;45.532;5.290;2022-12-18T08:20:22;1.80;97.90
24326;DHT22;12448;45.532;5.290;2022-12-18T08:22:48;1.80;97.90
24326;DHT22;12448;45.532;5.290;2022-12-18T08:25:13;1.90;98.00
24326;DHT22;12448;45.532;5.290;2022-12-18T08:27:39;1.90;98.00
24326;DHT22;12448;45.532;5.290;2022-12-18T08:30:05;1.90;98.10
24326;DHT22;12448;45.532;5.290;2022-12-18T08:32:31;2.00;98.10
24326;DHT22;12448;45.532;5.290;2022-12-18T08:34:58;2.00;98.20
24326;DHT22;12448;45.532;5.290;2022-12-18T08:37:24;2.00;98.20
24326;DHT22;12448;45.532;5.290;2022-12-18T08:39:49;2.10;98.30
24326;DHT22;12448;45.532;5.290;2022-12-18T08:42:15;2.10;98.30
24326;DHT22;12448;45.532;5.290;2022-12-18T08:45:04;2.20;98.40
24326;DHT22;12448;45.532;5.290;2022-12-18T08:47:30;2.20;98.40
24326;DHT22;12448;45.532;5.290;2022-12-18T08:49:55;2.20;98.50
24326;DHT22;12448;45.532;5.290;2022-12-18T08:52:21;2.30;98.50
24326;DHT22;12448;45.532;5.290;2022-12-18T08:54:47;2.30;98.60
24326;DHT22;12448;45.532;5.290;2022-12-18T08:57:12;2.40;98.70
24326;DHT22;12448;45.532;5.290;2022-12-18T08:59:38;2.40;98.70
24326;DHT22;12448;45.532;5.290;2022-12-18T09:02:03;2.50;98.80
24326;DHT22;12448;45.532;5.290;2022-12-18T09:04:29;2.50;98.80
24326;DHT22;12448;45.532;5.290;2022-12-18T09:06:56;2.60;99.00
24326;DHT22;12448;45.532;5.290;2022-12-18T09:09:21;2.60;99.00
24326;DHT22;12448;45.532;5.290;2022-12-18T09:11:47;2.70;99.30
24326;DHT22;12448;45.532;5.290;2022-12-18T09:14:13;2.80;99.30
24326;DHT22;12448;45.532;5.290;2022-12-18T09:16:38;2.90;99.50
24326;DHT22;12448;45.532;5.290;2022-12-18T09:19:05;2.90;99.60
24326;DHT22;12448;45.532;5.290;2022-12-18T09:21:33;3.00;99.80
24326;DHT22;12448;45.532;5.290;2022-12-18T09:23:59;3.10;99.90
24326;DHT22;12448;45.532;5.290;2022-12-18T09:26:26;3.10;99.90
24326;DHT22;12448;45.532;5.290;2022-12-18T09:28:52;3.20;99.90
24326;DHT22;12448;45.532;5.290;2022-12-18T09:31:20;3.30;99.90
24326;DHT22;12448;45.532;5.290;2022-12-18T09:33:46;3.30;99.90
24326;DHT22;12448;45.532;5.290;2022-12-18T09:36:14;3.40;99.90
24326;DHT22;12448;45.532;5.290;2022-12-18T09:38:40;3.60;99.90
24326;DHT22;12448;45.532;5.290;2022-12-18T09:44:41;3.60;99.90
24326;DHT22;12448;45.532;5.290;2022-12-18T09:49:46;3.80;99.90
24326;DHT22;12448;45.532;5.290;2022-12-18T09:54:42;4.40;99.90
24326;DHT22;12448;45.532;5.290;2022-12-18T09:57:20;3.90;99.90
24326;DHT22;12448;45.532;5.290;2022-12-18T09:59:53;4.00;99.90
24326;DHT22;12448;45.532;5.290;2022-12-18T10:02:22;4.00;99.90
24326;DHT22;12448;45.532;5.290;2022-12-18T10:05:10;4.20;99.90
24326;DHT22;12448;45.532;5.290;2022-12-18T10:13:21;4.10;99.90
24326;DHT22;12448;45.532;5.290;2022-12-18T10:18:37;4.20;99.90
24326;DHT22;12448;45.532;5.290;2022-12-18T10:21:15;4.30;99.90
24326;DHT22;12448;45.532;5.290;2022-12-18T10:23:52;4.30;99.90
24326;DHT22;12448;45.532;5.290;2022-12-18T10:26:23;4.80;99.90
24326;DHT22;12448;45.532;5.290;2022-12-18T10:28:49;4.40;99.90
24326;DHT22;12448;45.532;5.290;2022-12-18T10:31:22;4.50;99.90
24326;DHT22;12448;45.532;5.290;2022-12-18T10:33:48;4.60;99.90
24326;DHT22;12448;45.532;5.290;2022-12-18T10:36:14;4.60;99.90
24326;DHT22;12448;45.532;5.290;2022-12-18T10:38:39;4.80;99.90
24326;DHT22;12448;45.532;5.290;2022-12-18T10:43:40;4.70;99.90
24326;DHT22;12448;45.532;5.290;2022-12-18T10:51:27;5.00;99.90
24326;DHT22;12448;45.532;5.290;2022-12-18T10:53:57;5.00;99.90
24326;DHT22;12448;45.532;5.290;2022-12-18T10:56:26;5.10;99.90
24326;DHT22;12448;45.532;5.290;2022-12-18T10:59:01;5.20;99.90
24326;DHT22;12448;45.532;5.290;2022-12-18T11:01:28;5.30;99.90
24326;DHT22;12448;45.532;5.290;2022-12-18T11:06:23;5.40;99.90
24326;DHT22;12448;45.532;5.290;2022-12-18T11:09:19;5.40;99.90
24326;DHT22;12448;45.532;5.290;2022-12-18T11:11:56;5.50;99.90
24326;DHT22;12448;45.532;5.290;2022-12-18T11:14:34;5.90;99.90
24326;DHT22;12448;45.532;5.290;2022-12-18T11:19:54;5.70;99.90
24326;DHT22;12448;45.532;5.290;2022-12-18T11:22:29;5.70;99.90
24326;DHT22;12448;45.532;5.290;2022-12-18T11:27:24;5.70;99.90
24326;DHT22;12448;45.532;5.290;2022-12-18T11:29:50;5.80;99.90
24326;DHT22;12448;45.532;5.290;2022-12-18T11:32:29;6.50;99.90
24326;DHT22;12448;45.532;5.290;2022-12-18T11:37:30;5.90;99.90
24326;DHT22;12448;45.532;5.290;2022-12-18T11:40:00;5.90;99.90
24326;DHT22;12448;45.532;5.290;2022-12-18T11:47:44;6.10;99.90
24326;DHT22;12448;45.532;5.290;2022-12-18T11:50:28;6.10;99.90
24326;DHT22;12448;45.532;5.290;2022-12-18T11:52:55;6.10;99.90
24326;DHT22;12448;45.532;5.290;2022-12-18T11:55:27;6.20;99.90
24326;DHT22;12448;45.532;5.290;2022-12-18T11:59:00;6.20;99.90
24326;DHT22;12448;45.532;5.290;2022-12-18T12:09:01;6.40;99.90
24326;DHT22;12448;45.532;5.290;2022-12-18T12:14:37;6.40;99.90
24326;DHT22;12448;45.532;5.290;2022-12-18T12:20:19;6.50;99.90
24326;DHT22;12448;45.532;5.290;2022-12-18T12:22:55;6.50;99.90
24326;DHT22;12448;45.532;5.290;2022-12-18T12:25:40;6.50;99.90
24326;DHT22;12448;45.532;5.290;2022-12-18T12:33:52;6.70;99.90
24326;DHT22;12448;45.532;5.290;2022-12-18T12:36:32;6.70;99.90
24326;DHT22;12448;45.532;5.290;2022-12-18T12:39:01;6.40;99.90
24326;DHT22;12448;45.532;5.290;2022-12-18T12:41:32;6.80;99.90
24326;DHT22;12448;45.532;5.290;2022-12-18T12:44:25;7.10;99.90
24326;DHT22;12448;45.532;5.290;2022-12-18T12:46:55;7.40;99.90
24326;DHT22;12448;45.532;5.290;2022-12-18T12:49:27;6.90;99.90
24326;DHT22;12448;45.532;5.290;2022-12-18T12:52:06;7.00;99.90
24326;DHT22;12448;45.532;5.290;2022-12-18T12:54:33;7.00;99.80
24326;DHT22;12448;45.532;5.290;2022-12-18T12:57:10;7.10;99.90
24326;DHT22;12448;45.532;5.290;2022-12-18T13:00:11;7.10;99.90
24326;DHT22;12448;45.532;5.290;2022-12-18T13:05:41;7.20;99.80
24326;DHT22;12448;45.532;5.290;2022-12-18T13:08:11;7.20;99.70
24326;DHT22;12448;45.532;5.290;2022-12-18T13:10:41;7.20;99.70
24326;DHT22;12448;45.532;5.290;2022-12-18T13:13:12;7.20;99.60
24326;DHT22;12448;45.532;5.290;2022-12-18T13:15:41;7.60;99.80
24326;DHT22;12448;45.532;5.290;2022-12-18T13:25:49;7.30;99.30
24326;DHT22;12448;45.532;5.290;2022-12-18T13:31:11;7.50;99.50
24326;DHT22;12448;45.532;5.290;2022-12-18T13:33:44;7.40;99.40
24326;DHT22;12448;45.532;5.290;2022-12-18T13:39:10;7.40;99.30
24326;DHT22;12448;45.532;5.290;2022-12-18T13:41:36;7.40;99.30
24326;DHT22;12448;45.532;5.290;2022-12-18T13:47:01;7.40;99.20
24326;DHT22;12448;45.532;5.290;2022-12-18T13:49:36;7.40;99.20
24326;DHT22;12448;45.532;5.290;2022-12-18T13:52:21;7.50;99.30
24326;DHT22;12448;45.532;5.290;2022-12-18T13:54:57;7.40;99.10
24326;DHT22;12448;45.532;5.290;2022-12-18T13:59:57;7.50;99.00
24326;DHT22;12448;45.532;5.290;2022-12-18T14:02:26;7.40;99.00
24326;DHT22;12448;45.532;5.290;2022-12-18T14:04:52;7.60;99.10
24326;DHT22;12448;45.532;5.290;2022-12-18T14:07:19;7.40;99.00
24326;DHT22;12448;45.532;5.290;2022-12-18T14:10:15;7.40;99.00
24326;DHT22;12448;45.532;5.290;2022-12-18T14:12:46;7.40;98.80
24326;DHT22;12448;45.532;5.290;2022-12-18T14:20:51;7.50;98.60
24326;DHT22;12448;45.532;5.290;2022-12-18T14:23:44;7.40;98.70
24326;DHT22;12448;45.532;5.290;2022-12-18T14:26:39;7.80;98.60
24326;DHT22;12448;45.532;5.290;2022-12-18T14:29:34;7.40;98.60
24326;DHT22;12448;45.532;5.290;2022-12-18T14:32:12;7.40;98.50
24326;DHT22;12448;45.532;5.290;2022-12-18T14:34:39;7.40;98.50
24326;DHT22;12448;45.532;5.290;2022-12-18T14:37:05;7.40;98.50
24326;DHT22;12448;45.532;5.290;2022-12-18T14:39:32;7.40;98.50
24326;DHT22;12448;45.532;5.290;2022-12-18T14:41:57;7.40;98.50
24326;DHT22;12448;45.532;5.290;2022-12-18T14:44:23;7.40;98.40
24326;DHT22;12448;45.532;5.290;2022-12-18T14:46:50;7.90;98.50
24326;DHT22;12448;45.532;5.290;2022-12-18T14:51:57;7.40;98.40
24326;DHT22;12448;45.532;5.290;2022-12-18T14:54:24;7.40;98.40
24326;DHT22;12448;45.532;5.290;2022-12-18T14:59:40;7.50;98.20
24326;DHT22;12448;45.532;5.290;2022-12-18T15:02:25;7.50;98.20
24326;DHT22;12448;45.532;5.290;2022-12-18T15:05:15;7.60;98.20
24326;DHT22;12448;45.532;5.290;2022-12-18T15:07:47;7.50;98.10
24326;DHT22;12448;45.532;5.290;2022-12-18T15:10:20;7.50;98.10
24326;DHT22;12448;45.532;5.290;2022-12-18T15:12:47;7.50;98.00
24326;DHT22;12448;45.532;5.290;2022-12-18T15:23:22;7.50;97.90
24326;DHT22;12448;45.532;5.290;2022-12-18T15:25:58;7.50;98.00
24326;DHT22;12448;45.532;5.290;2022-12-18T15:28:51;7.50;97.90
24326;DHT22;12448;45.532;5.290;2022-12-18T15:36:21;7.50;97.60
24326;DHT22;12448;45.532;5.290;2022-12-18T15:38:48;7.60;97.80
24326;DHT22;12448;45.532;5.290;2022-12-18T15:41:16;7.50;97.70
24326;DHT22;12448;45.532;5.290;2022-12-18T15:43:42;7.50;97.70
24326;DHT22;12448;45.532;5.290;2022-12-18T15:46:21;7.50;97.50
24326;DHT22;12448;45.532;5.290;2022-12-18T15:48:53;7.50;97.30
24326;DHT22;12448;45.532;5.290;2022-12-18T15:51:37;7.50;97.40
24326;DHT22;12448;45.532;5.290;2022-12-18T15:54:05;7.40;97.20
24326;DHT22;12448;45.532;5.290;2022-12-18T15:56:32;7.50;97.20
24326;DHT22;12448;45.532;5.290;2022-12-18T15:59:18;7.40;97.10
24326;DHT22;12448;45.532;5.290;2022-12-18T16:01:51;7.50;97.10
24326;DHT22;12448;45.532;5.290;2022-12-18T16:04:21;7.50;97.00
24326;DHT22;12448;45.532;5.290;2022-12-18T16:06:50;7.80;97.00
24326;DHT22;12448;45.532;5.290;2022-12-18T16:09:19;7.50;96.80
24326;DHT22;12448;45.532;5.290;2022-12-18T16:11:45;7.40;96.60
24326;DHT22;12448;45.532;5.290;2022-12-18T16:16:45;7.50;96.60
24326;DHT22;12448;45.532;5.290;2022-12-18T16:19:11;7.50;96.40
24326;DHT22;12448;45.532;5.290;2022-12-18T16:21:37;7.50;96.40
24326;DHT22;12448;45.532;5.290;2022-12-18T16:24:03;7.50;96.00
24326;DHT22;12448;45.532;5.290;2022-12-18T16:26:35;7.50;96.60
24326;DHT22;12448;45.532;5.290;2022-12-18T16:29:00;7.50;96.20
24326;DHT22;12448;45.532;5.290;2022-12-18T16:31:26;7.80;96.30
24326;DHT22;12448;45.532;5.290;2022-12-18T16:34:22;7.50;96.20
24326;DHT22;12448;45.532;5.290;2022-12-18T16:36:54;7.50;96.20
24326;DHT22;12448;45.532;5.290;2022-12-18T16:39:20;7.80;96.30
24326;DHT22;12448;45.532;5.290;2022-12-18T16:41:47;7.50;96.00
24326;DHT22;12448;45.532;5.290;2022-12-18T16:44:13;7.50;96.10
24326;DHT22;12448;45.532;5.290;2022-12-18T16:49:17;7.50;95.90
24326;DHT22;12448;45.532;5.290;2022-12-18T16:51:43;7.50;95.80
24326;DHT22;12448;45.532;5.290;2022-12-18T16:54:16;7.60;95.90
24326;DHT22;12448;45.532;5.290;2022-12-18T16:56:42;7.60;95.90
24326;DHT22;12448;45.532;5.290;2022-12-18T16:59:10;7.50;95.90
24326;DHT22;12448;45.532;5.290;2022-12-18T17:01:36;7.50;95.90
24326;DHT22;12448;45.532;5.290;2022-12-18T17:04:03;7.50;95.80
24326;DHT22;12448;45.532;5.290;2022-12-18T17:06:32;7.50;95.70
24326;DHT22;12448;45.532;5.290;2022-12-18T17:09:00;7.60;95.70
24326;DHT22;12448;45.532;5.290;2022-12-18T17:11:26;7.60;95.70
24326;DHT22;12448;45.532;5.290;2022-12-18T17:13:55;7.60;95.70
24326;DHT22;12448;45.532;5.290;2022-12-18T17:16:21;7.50;95.60
24326;DHT22;12448;45.532;5.290;2022-12-18T17:18:47;7.50;95.70
24326;DHT22;12448;45.532;5.290;2022-12-18T17:21:13;7.50;95.70
24326;DHT22;12448;45.532;5.290;2022-12-18T17:23:40;7.50;95.80
24326;DHT22;12448;45.532;5.290;2022-12-18T17:26:06;7.50;95.80
24326;DHT22;12448;45.532;5.290;2022-12-18T17:28:33;7.40;95.80
24326;DHT22;12448;45.532;5.290;2022-12-18T17:30:59;7.90;96.00
24326;DHT22;12448;45.532;5.290;2022-12-18T17:33:25;7.40;95.90
24326;DHT22;12448;45.532;5.290;2022-12-18T17:35:51;7.40;95.90
24326;DHT22;12448;45.532;5.290;2022-12-18T17:38:17;7.40;95.70
24326;DHT22;12448;45.532;5.290;2022-12-18T17:40:42;7.50;95.50
24326;DHT22;12448;45.532;5.290;2022-12-18T17:43:12;7.50;95.50
24326;DHT22;12448;45.532;5.290;2022-12-18T17:45:38;7.50;95.40
24326;DHT22;12448;45.532;5.290;2022-12-18T17:48:06;7.80;95.50
24326;DHT22;12448;45.532;5.290;2022-12-18T17:50:33;7.40;95.40
24326;DHT22;12448;45.532;5.290;2022-12-18T17:52:58;7.50;95.40
24326;DHT22;12448;45.532;5.290;2022-12-18T17:55:25;7.50;95.40
24326;DHT22;12448;45.532;5.290;2022-12-18T17:57:51;7.40;95.40
24326;DHT22;12448;45.532;5.290;2022-12-18T18:00:17;7.40;95.40
24326;DHT22;12448;45.532;5.290;2022-12-18T18:02:43;7.40;95.40
24326;DHT22;12448;45.532;5.290;2022-12-18T18:05:09;7.50;95.50
24326;DHT22;12448;45.532;5.290;2022-12-18T18:07:38;7.40;95.50
24326;DHT22;12448;45.532;5.290;2022-12-18T18:10:05;7.40;95.50
24326;DHT22;12448;45.532;5.290;2022-12-18T18:12:31;7.30;95.60
24326;DHT22;12448;45.532;5.290;2022-12-18T18:15:16;7.40;95.60
24326;DHT22;12448;45.532;5.290;2022-12-18T18:17:41;7.30;95.60
24326;DHT22;12448;45.532;5.290;2022-12-18T18:20:07;7.30;95.60
24326;DHT22;12448;45.532;5.290;2022-12-18T18:22:33;7.30;95.60
24326;DHT22;12448;45.532;5.290;2022-12-18T18:24:59;7.30;96.00
24326;DHT22;12448;45.532;5.290;2022-12-18T18:27:25;7.60;95.70